createdAt,value
2019-05-29T00:00:46.549Z,101100.22
2019-05-29T00:04:12.362Z,101101.10
2019-05-29T00:07:19.779Z,101107.77
2019-05-29T00:10:27.080Z,101114.26
2019-05-29T00:13:34.274Z,101118.58
2019-05-29T00:16:41.467Z,101126.47
2019-05-29T00:19:48.740Z,101127.98
2019-05-29T00:22:54.888Z,101133.09
2019-05-29T00:26:14.684Z,101138.66
2019-05-29T00:29:21.946Z,101141.11
2019-05-29T00:32:41.571Z,101142.41
2019-05-29T00:35:48.929Z,101146.03
2019-05-29T00:39:08.682Z,101149.42
2019-05-29T00:42:17.453Z,101148.39
2019-05-29T00:45:24.962Z,101153.20
2019-05-29T00:48:32.304Z,101156.64
2019-05-29T00:51:39.747Z,101163.25
2019-05-29T00:54:47.127Z,101164.53
2019-05-29T00:57:54.777Z,101168.95
2019-05-29T01:01:13.786Z,101170.09
2019-05-29T01:04:32.927Z,101172.53
2019-05-29T01:07:58.225Z,101179.87
2019-05-29T01:11:03.988Z,101181.33
2019-05-29T01:14:22.519Z,101179.18
2019-05-29T01:17:29.786Z,101181.59
2019-05-29T01:20:49.416Z,101175.13
2019-05-29T01:23:55.577Z,101173.19
2019-05-29T01:27:03.032Z,101171.20
2019-05-29T01:30:11.180Z,101174.36
2019-05-29T01:33:30.838Z,101178.91
2019-05-29T01:36:55.494Z,101178.20
2019-05-29T01:40:16.577Z,101183.91
2019-05-29T01:43:10.643Z,101186.18
2019-05-29T01:46:17.816Z,101191.33
2019-05-29T01:49:23.801Z,101200.17
2019-05-29T01:52:31.305Z,101202.41
2019-05-29T01:55:38.668Z,101201.29
2019-05-29T01:59:03.573Z,101201.25
2019-05-29T02:02:10.024Z,101206.48
2019-05-29T02:05:17.852Z,101207.03
2019-05-29T02:08:36.642Z,101201.17
2019-05-29T02:11:55.818Z,101206.72
2019-05-29T02:15:03.091Z,101221.73
2019-05-29T02:18:22.971Z,101218.66
2019-05-29T02:21:30.525Z,101221.44
2019-05-29T02:24:37.897Z,101229.09
2019-05-29T02:27:45.336Z,101231.71
2019-05-29T02:30:52.660Z,101227.13
2019-05-29T02:33:59.949Z,101235.32
2019-05-29T02:37:26.110Z,101234.88
2019-05-29T02:40:33.467Z,101242.60
2019-05-29T02:44:02.743Z,101244.27
2019-05-29T02:47:10.005Z,101256.73
2019-05-29T02:50:29.396Z,101259.68
2019-05-29T02:53:48.576Z,101258.14
2019-05-29T02:57:07.774Z,101262.40
2019-05-29T03:00:14.257Z,101266.29
2019-05-29T03:03:23.778Z,101272.73
2019-05-29T03:06:49.016Z,101274.41
2019-05-29T03:10:08.645Z,101274.41
2019-05-29T03:13:16.072Z,101284.32
2019-05-29T03:16:26.052Z,101283.82
2019-05-29T03:19:34.536Z,101294.88
2019-05-29T03:22:41.714Z,101298.40
2019-05-29T03:25:49.118Z,101307.38
2019-05-29T03:29:08.267Z,101307.22
2019-05-29T03:32:14.791Z,101303.56
2019-05-29T03:35:22.261Z,101303.12
2019-05-29T03:38:30.307Z,101310.33
2019-05-29T03:41:39.021Z,101312.91
2019-05-29T03:44:46.486Z,101316.30
2019-05-29T03:47:53.975Z,101315.86
2019-05-29T03:51:01.323Z,101317.51
2019-05-29T03:54:08.770Z,101324.34
2019-05-29T03:57:16.109Z,101327.77
2019-05-29T04:00:23.559Z,101327.33
2019-05-29T04:03:49.229Z,101333.32
2019-05-29T04:17:39.069Z,101345.13
2019-05-29T04:20:59.229Z,101353.14
2019-05-29T04:24:07.019Z,101367.16
2019-05-29T04:27:14.300Z,101370.14
2019-05-29T04:30:34.970Z,101371.73
2019-05-29T04:33:43.640Z,101382.82
2019-05-29T04:37:07.340Z,101385.43
2019-05-29T04:40:12.142Z,101387.89
2019-05-29T04:43:19.394Z,101396.72
2019-05-29T04:46:26.878Z,101398.05
2019-05-29T04:49:33.868Z,101410.22
2019-05-29T04:52:42.156Z,101412.70
2019-05-29T04:55:49.756Z,101418.52
2019-05-29T04:58:57.292Z,101425.64
2019-05-29T05:02:04.729Z,101426.70
2019-05-29T05:05:31.075Z,101434.43
2019-05-29T05:08:39.715Z,101440.23
2019-05-29T05:11:47.527Z,101443.47
2019-05-29T05:15:10.767Z,101438.42
2019-05-29T05:18:18.934Z,101446.44
2019-05-29T05:21:26.354Z,101450.89
2019-05-29T05:24:51.498Z,101458.59
2019-05-29T05:28:10.234Z,101461.83
2019-05-29T05:31:36.499Z,101467.59
2019-05-29T05:34:43.941Z,101472.59
2019-05-29T05:37:51.348Z,101478.27
2019-05-29T05:41:15.190Z,101479.66
2019-05-29T05:44:35.332Z,101483.69
2019-05-29T05:47:53.664Z,101493.55
2019-05-29T05:50:50.065Z,101496.57
2019-05-29T05:53:56.231Z,101491.94
2019-05-29T05:57:21.297Z,101500.41
2019-05-29T06:00:46.091Z,101502.70
2019-05-29T06:04:11.791Z,101513.08
2019-05-29T06:07:38.127Z,101508.68
2019-05-29T06:10:45.579Z,101517.94
2019-05-29T06:13:53.076Z,101528.14
2019-05-29T06:17:12.577Z,101531.09
2019-05-29T06:20:32.536Z,101536.55
2019-05-29T06:59:52.360Z,101555.45
2019-05-29T07:06:42.716Z,101579.34
2019-05-29T07:09:49.838Z,101580.38
2019-05-29T07:12:56.060Z,101583.34
2019-05-29T07:16:03.530Z,101582.02
2019-05-29T07:19:45.061Z,101586.02
2019-05-29T07:22:19.950Z,101582.02
2019-05-29T07:25:27.245Z,101589.00
2019-05-29T07:28:34.511Z,101595.48
2019-05-29T07:31:41.311Z,101597.74
2019-05-29T07:35:02.051Z,101594.50
2019-05-29T07:37:57.444Z,101600.75
2019-05-29T07:41:04.860Z,101605.38
2019-05-29T07:44:12.294Z,101621.59
2019-05-29T07:47:19.574Z,101629.14
2019-05-29T07:50:26.936Z,101625.55
2019-05-29T07:53:52.502Z,101619.39
2019-05-29T07:57:10.955Z,101624.69
2019-05-29T08:00:35.710Z,101625.81
2019-05-29T08:03:50.778Z,101627.61
2019-05-29T08:07:09.892Z,101631.67
2019-05-29T08:10:17.520Z,101634.41
2019-05-29T08:13:24.883Z,101641.77
2019-05-29T08:16:32.646Z,101639.12
2019-05-29T08:19:53.509Z,101642.39
2019-05-29T08:22:48.511Z,101641.79
2019-05-29T08:25:55.955Z,101648.85
2019-05-29T08:29:03.431Z,101641.66
2019-05-29T08:32:10.769Z,101652.97
2019-05-29T08:35:18.142Z,101655.73
2019-05-29T08:38:37.236Z,101659.91
2019-05-29T08:42:21.189Z,101660.37
2019-05-29T08:45:16.864Z,101665.38
2019-05-29T08:48:36.004Z,101666.92
2019-05-29T08:52:11.253Z,101669.51
2019-05-29T08:55:21.584Z,101668.89
2019-05-29T08:58:28.874Z,101667.19
2019-05-29T09:01:50.439Z,101675.04
2019-05-29T09:05:08.653Z,101670.23
2019-05-29T09:08:27.686Z,101673.59
2019-05-29T09:11:34.121Z,101678.60
2019-05-29T09:14:41.475Z,101675.94
2019-05-29T09:17:48.771Z,101674.33
2019-05-29T09:21:03.324Z,101679.30
2019-05-29T09:24:05.143Z,101671.52
2019-05-29T09:27:25.464Z,101680.95
2019-05-29T09:30:32.921Z,101683.41
2019-05-29T09:33:40.283Z,101677.39
2019-05-29T09:36:47.617Z,101680.26
2019-05-29T09:39:54.929Z,101680.23
2019-05-29T09:43:02.281Z,101680.92
2019-05-29T09:46:09.692Z,101689.30
2019-05-29T09:49:18.255Z,101689.30
2019-05-29T09:52:25.581Z,101697.00
2019-05-29T09:55:33.008Z,101690.50
2019-05-29T09:58:55.286Z,101694.05
2019-05-29T10:02:19.703Z,101704.11
2019-05-29T10:05:44.887Z,101703.16
2019-05-29T10:08:54.151Z,101713.97
2019-05-29T10:12:04.966Z,101718.59
2019-05-29T10:15:11.617Z,101726.95
2019-05-29T10:18:31.968Z,101726.69
2019-05-29T10:21:39.020Z,101731.62
2019-05-29T10:24:37.003Z,101727.90
2019-05-29T10:27:44.361Z,101734.28
2019-05-29T10:30:52.723Z,101735.49
2019-05-29T10:34:00.243Z,101735.66
2019-05-29T10:37:07.606Z,101735.11
2019-05-29T10:40:32.908Z,101738.25
2019-05-29T10:43:57.744Z,101735.25
2019-05-29T10:47:17.407Z,101743.55
2019-05-29T10:50:24.749Z,101744.47
2019-05-29T10:53:52.132Z,101734.66
2019-05-29T10:57:10.368Z,101722.48
2019-05-29T11:00:38.572Z,101729.16
2019-05-29T11:03:55.971Z,101726.48
2019-05-29T11:07:03.326Z,101735.46
2019-05-29T11:10:13.300Z,101727.56
2019-05-29T11:13:18.605Z,101725.02
2019-05-29T11:16:26.248Z,101731.73
2019-05-29T11:19:32.379Z,101726.09
2019-05-29T11:22:39.846Z,101725.00
2019-05-29T11:25:47.854Z,101726.21
2019-05-29T11:29:06.832Z,101731.22
2019-05-29T11:32:32.555Z,101727.42
2019-05-29T11:36:10.041Z,101723.41
2019-05-29T11:39:25.143Z,101730.91
2019-05-29T11:42:50.782Z,101726.36
2019-05-29T11:45:59.595Z,101727.20
2019-05-29T11:49:07.144Z,101725.82
2019-05-29T11:52:24.448Z,101719.91
2019-05-29T11:55:23.168Z,101722.35
2019-05-29T11:58:31.818Z,101726.09
2019-05-29T12:01:49.734Z,101734.70
2019-05-29T12:04:48.408Z,101738.99
2019-05-29T12:07:55.444Z,101738.11
2019-05-29T12:11:02.937Z,101737.38
2019-05-29T12:14:21.963Z,101736.55
2019-05-29T12:17:29.442Z,101739.54
2019-05-29T12:20:56.138Z,101731.16
2019-05-29T12:24:03.683Z,101731.31
2019-05-29T12:27:23.871Z,101744.06
2019-05-29T12:30:42.870Z,101736.72
2019-05-29T12:34:18.875Z,101734.55
2019-05-29T12:37:28.996Z,101740.53
2019-05-29T12:40:47.874Z,101731.66
2019-05-29T12:43:55.346Z,101739.61
2019-05-29T12:47:04.276Z,101734.80
2019-05-29T12:50:12.558Z,101736.57
2019-05-29T12:53:30.229Z,101735.13
2019-05-29T12:56:29.110Z,101737.17
2019-05-29T12:59:34.890Z,101729.77
2019-05-29T13:02:42.257Z,101732.64
2019-05-29T13:05:49.620Z,101739.03
2019-05-29T13:09:14.417Z,101734.91
2019-05-29T13:12:39.699Z,101734.35
2019-05-29T13:15:47.064Z,101733.98
2019-05-29T13:19:06.760Z,101728.61
2019-05-29T13:22:25.902Z,101727.53
2019-05-29T13:25:51.733Z,101722.88
2019-05-29T13:28:59.728Z,101734.06
2019-05-29T13:32:07.672Z,101716.42
2019-05-29T13:35:16.470Z,101716.42
2019-05-29T13:38:23.861Z,101724.40
2019-05-29T13:41:31.159Z,101725.41
2019-05-29T13:44:38.546Z,101716.05
2019-05-29T13:47:45.963Z,101713.92
2019-05-29T13:50:53.221Z,101720.78
2019-05-29T13:54:06.522Z,101717.09
2019-05-29T13:57:21.207Z,101724.08
2019-05-29T14:00:40.442Z,101719.86
2019-05-29T14:03:50.388Z,101720.97
2019-05-29T14:07:06.974Z,101725.42
2019-05-29T14:10:32.185Z,101725.23
2019-05-29T14:13:59.032Z,101720.16
2019-05-29T14:17:24.054Z,101726.47
2019-05-29T14:20:43.356Z,101726.31
2019-05-29T14:24:07.317Z,101727.77
2019-05-29T14:27:23.791Z,101727.88
2019-05-29T14:30:31.195Z,101733.42
2019-05-29T14:33:55.340Z,101735.18
2019-05-29T14:37:20.539Z,101727.77
2019-05-29T14:40:26.739Z,101727.77
2019-05-29T14:43:34.049Z,101725.08
2019-05-29T14:46:41.307Z,101725.08
2019-05-29T14:49:48.690Z,101730.75
2019-05-29T14:52:56.062Z,101730.94
2019-05-29T14:56:04.482Z,101741.63
2019-05-29T14:59:13.462Z,101727.81
2019-05-29T15:02:23.985Z,101729.29
2019-05-29T15:05:29.575Z,101737.28
2019-05-29T15:08:36.861Z,101738.11
2019-05-29T15:11:44.178Z,101738.11
2019-05-29T15:14:51.577Z,101739.68
2019-05-29T15:17:59.022Z,101738.38
2019-05-29T15:21:23.752Z,101729.67
2019-05-29T15:24:31.109Z,101734.95
2019-05-29T15:27:37.343Z,101740.42
2019-05-29T15:30:45.095Z,101733.92
2019-05-29T15:33:52.479Z,101738.19
2019-05-29T15:36:59.847Z,101732.47
2019-05-29T15:40:25.093Z,101737.48
2019-05-29T15:43:44.209Z,101745.18
2019-05-29T15:46:51.580Z,101748.23
2019-05-29T16:00:57.841Z,101750.36
2019-05-29T16:04:05.234Z,101760.74
2019-05-29T16:07:24.534Z,101752.86
2019-05-29T16:10:50.009Z,101746.83
2019-05-29T16:14:15.046Z,101750.26
2019-05-29T16:17:33.784Z,101748.87
2019-05-29T16:20:39.740Z,101746.83
2019-05-29T16:23:58.227Z,101752.48
2019-05-29T16:27:18.196Z,101749.80
2019-05-29T16:30:25.199Z,101746.38
2019-05-29T16:33:32.597Z,101747.95
2019-05-29T16:36:40.113Z,101742.09
2019-05-29T16:39:47.403Z,101748.77
2019-05-29T16:42:54.646Z,101746.45
2019-05-29T16:46:01.921Z,101741.80
2019-05-29T16:49:09.357Z,101744.28
2019-05-29T16:52:16.868Z,101743.36
2019-05-29T16:55:53.540Z,101745.00
2019-05-29T16:59:02.702Z,101748.15
2019-05-29T17:02:10.426Z,101750.34
2019-05-29T17:05:17.736Z,101749.70
2019-05-29T17:08:24.757Z,101755.16
2019-05-29T17:11:32.041Z,101744.22
2019-05-29T17:14:39.761Z,101742.78
2019-05-29T17:17:47.046Z,101737.67
2019-05-29T17:20:54.406Z,101742.91
2019-05-29T17:24:14.691Z,101736.18
2019-05-29T17:27:22.961Z,101747.97
2019-05-29T17:30:31.795Z,101747.97
2019-05-29T17:33:39.130Z,101741.73
2019-05-29T17:36:46.498Z,101741.73
2019-05-29T17:39:53.849Z,101740.98
2019-05-29T17:43:01.197Z,101745.90
2019-05-29T17:46:08.617Z,101749.34
2019-05-29T17:49:15.857Z,101746.63
2019-05-29T17:52:23.938Z,101747.45
2019-05-29T17:55:31.312Z,101743.79
2019-05-29T17:58:38.903Z,101741.30
2019-05-29T18:01:46.274Z,101742.71
2019-05-29T18:04:53.629Z,101744.89
2019-05-29T18:08:13.221Z,101741.80
2019-05-29T18:11:21.120Z,101741.97
2019-05-29T18:14:28.455Z,101739.63
2019-05-29T18:17:35.884Z,101744.78
2019-05-29T18:20:43.392Z,101745.78
2019-05-29T18:23:53.402Z,101746.59
2019-05-29T18:26:59.635Z,101738.22
2019-05-29T18:30:08.593Z,101742.30
2019-05-29T18:33:28.821Z,101736.77
2019-05-29T18:36:35.778Z,101742.21
2019-05-29T18:39:43.142Z,101739.94
2019-05-29T18:42:50.512Z,101735.95
2019-05-29T18:45:58.151Z,101743.17
2019-05-29T18:49:16.908Z,101743.52
2019-05-29T18:52:35.700Z,101747.38
2019-05-29T18:56:00.433Z,101750.98
2019-05-29T18:59:21.495Z,101754.58
2019-05-29T19:02:29.574Z,101750.03
2019-05-29T19:05:37.104Z,101750.05
2019-05-29T19:08:44.729Z,101751.04
2019-05-29T19:11:52.049Z,101744.45
2019-05-29T19:14:59.490Z,101749.94
2019-05-29T19:18:18.146Z,101748.53
2019-05-29T19:21:43.393Z,101755.27
2019-05-29T19:25:02.764Z,101753.45
2019-05-29T19:28:22.474Z,101754.11
2019-05-29T19:31:31.205Z,101759.77
2019-05-29T19:34:38.723Z,101760.59
2019-05-29T19:37:49.984Z,101762.70
2019-05-29T19:40:56.844Z,101771.63
2019-05-29T19:44:04.695Z,101766.86
2019-05-29T19:47:22.997Z,101767.86
2019-05-29T19:50:30.909Z,101764.02
2019-05-29T19:53:38.654Z,101768.68
2019-05-29T19:56:46.005Z,101776.36
2019-05-29T19:59:53.375Z,101776.28
2019-05-29T20:03:00.833Z,101778.73
2019-05-29T20:06:26.881Z,101774.25
2019-05-29T20:09:35.445Z,101771.22
2019-05-29T20:12:42.773Z,101771.45
2019-05-29T20:15:50.155Z,101769.26
2019-05-29T20:18:57.517Z,101785.38
2019-05-29T20:22:05.223Z,101779.66
2019-05-29T20:25:29.436Z,101787.59
2019-05-29T20:28:48.593Z,101782.65
2019-05-29T20:32:08.293Z,101783.00
2019-05-29T20:35:34.817Z,101780.73
2019-05-29T20:38:42.182Z,101793.89
2019-05-29T20:42:07.763Z,101791.53
2019-05-29T20:45:27.006Z,101793.82
2019-05-29T20:48:33.251Z,101796.41
2019-05-29T20:51:40.729Z,101792.77
2019-05-29T20:54:48.329Z,101790.82
2019-05-29T20:57:55.590Z,101787.80
2019-05-29T21:01:03.353Z,101788.78
2019-05-29T21:04:11.023Z,101787.28
2019-05-29T21:07:18.313Z,101790.95
2019-05-29T21:10:25.774Z,101780.45
2019-05-29T21:13:33.330Z,101791.77
2019-05-29T21:16:41.859Z,101793.18
2019-05-29T21:19:49.378Z,101788.34
2019-05-29T21:23:09.194Z,101787.52
2019-05-29T21:26:16.482Z,101781.00
2019-05-29T21:29:35.537Z,101773.69
2019-05-29T21:32:44.006Z,101788.05
2019-05-29T21:35:51.429Z,101786.03
2019-05-29T21:38:58.123Z,101780.66
2019-05-29T21:42:05.481Z,101784.61
2019-05-29T21:45:11.434Z,101787.45
2019-05-29T21:48:19.385Z,101790.55
2019-05-29T21:51:26.833Z,101775.84
2019-05-29T21:54:34.199Z,101778.98
2019-05-29T21:57:45.112Z,101779.93
2019-05-29T22:00:50.942Z,101778.78
2019-05-29T22:04:09.992Z,101779.17
2019-05-29T22:07:15.722Z,101776.48
2019-05-29T22:10:40.490Z,101775.33
2019-05-29T22:14:00.659Z,101784.31
2019-05-29T22:17:08.162Z,101784.97
2019-05-29T22:20:15.740Z,101785.14
2019-05-29T22:23:23.033Z,101784.79
2019-05-29T22:26:30.385Z,101780.28
2019-05-29T22:29:37.771Z,101777.76
2019-05-29T22:32:57.488Z,101766.71
2019-05-29T22:36:04.961Z,101770.37
2019-05-29T22:39:11.906Z,101767.53
2019-05-29T22:42:19.457Z,101765.05
2019-05-29T22:45:26.810Z,101768.45
2019-05-29T22:48:34.341Z,101762.94
2019-05-29T22:51:41.690Z,101761.34
2019-05-29T22:54:49.052Z,101756.77
2019-05-29T22:58:14.151Z,101749.02
2019-05-29T23:01:21.402Z,101739.81
2019-05-29T23:04:40.172Z,101742.90
2019-05-29T23:07:46.486Z,101745.13
2019-05-29T23:10:54.213Z,101749.94
2019-05-29T23:14:02.534Z,101747.02
2019-05-29T23:17:09.397Z,101745.33
2019-05-29T23:20:17.335Z,101737.27
2019-05-29T23:23:24.782Z,101734.38
2019-05-29T23:26:32.156Z,101734.45
2019-05-29T23:29:48.600Z,101737.98
2019-05-29T23:32:47.787Z,101729.09
2019-05-29T23:35:55.413Z,101725.22
2019-05-29T23:49:44.060Z,101722.14
2019-05-29T23:53:04.012Z,101714.98
2019-05-29T23:56:11.544Z,101716.66
2019-05-29T23:59:18.877Z,101720.98
